createdAt,value
2018-05-10T00:00:53.689Z,10.20
2018-05-10T00:03:19.764Z,13.50
2018-05-10T00:05:45.949Z,13.87
2018-05-10T00:08:12.017Z,16.33
2018-05-10T00:10:38.101Z,9.47
2018-05-10T00:13:04.969Z,11.77
2018-05-10T00:15:31.779Z,10.80
2018-05-10T00:17:57.861Z,10.67
2018-05-10T00:20:24.684Z,10.63
2018-05-10T00:22:50.865Z,12.63
2018-05-10T00:25:16.930Z,11.00
2018-05-10T00:27:43.016Z,10.97
2018-05-10T00:30:09.113Z,10.90
2018-05-10T00:32:35.211Z,10.63
2018-05-10T00:35:01.277Z,12.57
2018-05-10T00:37:27.349Z,13.00
2018-05-10T00:39:53.406Z,11.73
2018-05-10T00:42:20.294Z,13.43
2018-05-10T00:44:46.397Z,10.80
2018-05-10T00:47:12.474Z,10.50
2018-05-10T00:49:38.553Z,10.40
2018-05-10T00:52:04.641Z,9.50
2018-05-10T00:54:42.958Z,12.50
2018-05-10T00:57:09.073Z,10.83
2018-05-10T00:59:35.137Z,12.13
2018-05-10T01:02:01.218Z,12.60
2018-05-10T01:04:27.327Z,14.53
2018-05-10T01:06:53.402Z,13.77
2018-05-10T01:09:19.485Z,15.93
2018-05-10T01:11:45.549Z,10.30
2018-05-10T01:14:11.638Z,10.90
2018-05-10T01:16:38.446Z,9.90
2018-05-10T01:19:04.517Z,13.17
2018-05-10T01:21:30.596Z,14.33
2018-05-10T01:23:56.665Z,12.50
2018-05-10T01:26:22.765Z,12.53
2018-05-10T01:28:48.849Z,12.37
2018-05-10T01:31:15.093Z,15.27
2018-05-10T01:33:41.174Z,12.00
2018-05-10T01:36:10.103Z,11.53
2018-05-10T01:38:36.189Z,13.07
2018-05-10T01:41:02.374Z,13.47
2018-05-10T01:43:28.476Z,14.37
2018-05-10T01:45:55.310Z,13.00
2018-05-10T01:48:21.406Z,16.30
2018-05-10T01:50:47.489Z,13.27
2018-05-10T01:53:13.689Z,17.73
2018-05-10T01:55:39.791Z,13.83
2018-05-10T01:58:06.618Z,15.17
2018-05-10T02:00:32.854Z,12.63
2018-05-10T02:02:58.935Z,12.53
2018-05-10T02:05:25.766Z,10.00
2018-05-10T02:07:52.020Z,11.70
2018-05-10T02:10:18.863Z,13.60
2018-05-10T02:12:44.955Z,13.50
2018-05-10T02:15:11.038Z,12.47
2018-05-10T02:17:37.131Z,12.10
2018-05-10T02:20:03.292Z,13.90
2018-05-10T02:22:29.387Z,13.17
2018-05-10T02:24:55.511Z,12.23
2018-05-10T02:27:22.367Z,13.00
2018-05-10T02:29:49.212Z,14.40
2018-05-10T02:32:15.296Z,12.70
2018-05-10T02:34:41.375Z,14.03
2018-05-10T02:37:07.462Z,15.20
2018-05-10T02:39:33.543Z,14.03
2018-05-10T02:41:59.630Z,13.90
2018-05-10T02:44:25.746Z,14.43
2018-05-10T02:46:51.815Z,14.43
2018-05-10T02:49:17.918Z,10.67
2018-05-10T02:51:44.007Z,11.80
2018-05-10T02:54:10.097Z,13.43
2018-05-10T02:56:36.922Z,11.60
2018-05-10T02:59:03.038Z,14.13
2018-05-10T03:01:29.134Z,12.30
2018-05-10T03:03:55.969Z,11.97
2018-05-10T03:06:22.087Z,11.90
2018-05-10T03:08:48.182Z,13.17
2018-05-10T03:11:14.335Z,11.80
2018-05-10T03:13:40.431Z,10.97
2018-05-10T03:16:06.515Z,11.73
2018-05-10T03:18:32.602Z,11.33
2018-05-10T03:20:58.787Z,10.97
2018-05-10T03:23:24.886Z,12.83
2018-05-10T03:25:50.973Z,11.30
2018-05-10T03:28:17.058Z,16.70
2018-05-10T03:30:43.172Z,12.63
2018-05-10T03:33:09.343Z,12.60
2018-05-10T03:35:35.350Z,13.40
2018-05-10T03:38:01.448Z,12.90
2018-05-10T03:40:27.563Z,11.87
2018-05-10T03:42:54.470Z,11.47
2018-05-10T03:45:20.570Z,13.50
2018-05-10T03:47:47.390Z,18.93
2018-05-10T03:50:13.477Z,13.77
2018-05-10T03:52:39.595Z,16.37
2018-05-10T03:55:05.666Z,18.23
2018-05-10T03:57:31.741Z,16.23
2018-05-10T03:59:57.839Z,17.00
2018-05-10T04:02:36.274Z,20.40
2018-05-10T04:05:14.563Z,17.40
2018-05-10T04:07:53.807Z,19.77
2018-05-10T04:10:33.119Z,17.47
2018-05-10T04:12:59.252Z,17.07
2018-05-10T04:15:25.370Z,17.70
2018-05-10T04:17:51.458Z,15.00
2018-05-10T04:20:17.550Z,14.40
2018-05-10T04:22:43.628Z,14.40
2018-05-10T04:25:09.709Z,15.07
2018-05-10T04:27:35.824Z,16.10
2018-05-10T04:30:02.662Z,14.00
2018-05-10T04:32:28.750Z,14.80
2018-05-10T04:34:54.870Z,16.40
2018-05-10T04:37:20.951Z,14.10
2018-05-10T04:39:47.106Z,14.93
2018-05-10T04:42:13.282Z,14.10
2018-05-10T04:44:39.306Z,16.53
2018-05-10T04:47:05.424Z,15.10
2018-05-10T04:49:31.930Z,16.83
2018-05-10T04:51:58.003Z,16.87
2018-05-10T04:54:24.124Z,19.00
2018-05-10T04:56:50.250Z,21.33
2018-05-10T04:59:16.370Z,22.47
2018-05-10T05:01:42.471Z,19.33
2018-05-10T05:04:09.295Z,17.97
2018-05-10T05:06:35.425Z,20.03
2018-05-10T05:09:01.552Z,21.03
2018-05-10T05:11:27.619Z,19.97
2018-05-10T05:13:53.699Z,18.53
2018-05-10T05:16:19.803Z,24.57
2018-05-10T05:18:46.415Z,18.30
2018-05-10T05:21:12.499Z,18.83
2018-05-10T05:23:38.627Z,18.30
2018-05-10T05:26:04.706Z,19.20
2018-05-10T05:28:30.785Z,19.43
2018-05-10T05:30:56.894Z,21.13
2018-05-10T05:33:22.975Z,16.93
2018-05-10T05:35:49.070Z,17.83
2018-05-10T05:38:15.162Z,18.83
2018-05-10T05:40:42.340Z,15.97
2018-05-10T05:43:09.189Z,19.40
2018-05-10T05:45:36.203Z,15.90
2018-05-10T05:48:02.303Z,18.40
2018-05-10T05:50:29.154Z,16.23
2018-05-10T05:52:55.987Z,15.90
2018-05-10T05:55:22.079Z,16.13
2018-05-10T05:57:48.199Z,15.00
2018-05-10T06:00:14.279Z,15.37
2018-05-10T06:02:40.391Z,17.50
2018-05-10T06:05:07.210Z,13.83
2018-05-10T06:07:34.066Z,14.67
2018-05-10T06:10:00.192Z,16.20
2018-05-10T06:12:26.287Z,14.93
2018-05-10T06:14:52.375Z,16.73
2018-05-10T06:17:19.235Z,13.93
2018-05-10T06:19:46.052Z,15.00
2018-05-10T06:22:12.156Z,18.63
2018-05-10T06:24:38.278Z,18.03
2018-05-10T06:27:04.439Z,15.17
2018-05-10T06:29:30.538Z,16.03
2018-05-10T06:31:56.618Z,15.83
2018-05-10T06:34:22.786Z,14.10
2018-05-10T06:36:48.896Z,15.57
2018-05-10T06:39:15.734Z,16.17
2018-05-10T06:41:41.827Z,16.10
2018-05-10T06:44:07.919Z,14.40
2018-05-10T06:46:33.990Z,14.27
2018-05-10T06:49:00.090Z,15.10
2018-05-10T06:51:26.202Z,15.53
2018-05-10T06:53:52.287Z,15.57
2018-05-10T06:56:18.411Z,18.47
2018-05-10T06:58:44.507Z,18.47
2018-05-10T07:01:10.595Z,17.37
2018-05-10T07:03:36.734Z,16.70
2018-05-10T07:06:02.885Z,17.30
2018-05-10T07:08:29.011Z,20.73
2018-05-10T07:10:55.108Z,15.20
2018-05-10T07:13:21.283Z,15.83
2018-05-10T07:15:47.367Z,16.90
2018-05-10T07:18:13.450Z,15.00
2018-05-10T07:20:39.536Z,15.50
2018-05-10T07:23:05.625Z,16.10
2018-05-10T07:25:31.792Z,15.20
2018-05-10T07:27:58.869Z,16.50
2018-05-10T07:30:24.989Z,15.50
2018-05-10T07:32:51.111Z,18.07
2018-05-10T07:35:17.986Z,16.30
2018-05-10T07:37:44.055Z,15.90
2018-05-10T07:40:10.258Z,14.30
2018-05-10T07:42:36.459Z,15.40
2018-05-10T07:45:03.362Z,15.57
2018-05-10T07:47:29.540Z,13.93
2018-05-10T07:49:55.620Z,16.00
2018-05-10T07:52:21.710Z,12.93
2018-05-10T07:54:47.791Z,15.17
2018-05-10T07:57:13.873Z,13.33
2018-05-10T07:59:39.984Z,13.97
2018-05-10T08:02:06.810Z,14.27
2018-05-10T08:04:33.622Z,15.10
2018-05-10T08:06:59.721Z,12.43
2018-05-10T08:09:25.823Z,14.07
2018-05-10T08:11:51.922Z,11.20
2018-05-10T08:14:18.051Z,13.67
2018-05-10T08:16:44.135Z,11.80
2018-05-10T08:19:10.309Z,11.67
2018-05-10T08:21:37.149Z,14.87
2018-05-10T08:24:04.042Z,11.33
2018-05-10T08:26:30.131Z,10.97
2018-05-10T08:28:56.341Z,12.07
2018-05-10T08:31:22.418Z,13.60
2018-05-10T08:33:48.515Z,10.97
2018-05-10T08:36:14.594Z,14.50
2018-05-10T08:38:40.687Z,11.93
2018-05-10T08:41:06.766Z,11.80
2018-05-10T08:43:32.869Z,11.13
2018-05-10T08:45:58.950Z,9.50
2018-05-10T08:48:25.054Z,11.30
2018-05-10T08:50:51.135Z,9.73
2018-05-10T08:53:17.959Z,7.70
2018-05-10T08:55:44.034Z,10.23
2018-05-10T08:58:10.862Z,6.37
2018-05-10T09:00:37.092Z,8.77
2018-05-10T09:03:03.190Z,6.40
2018-05-10T09:05:29.267Z,6.30
2018-05-10T09:07:55.374Z,7.63
2018-05-10T09:10:21.453Z,6.93
2018-05-10T09:12:47.535Z,9.70
2018-05-10T09:15:13.631Z,7.10
2018-05-10T09:17:39.707Z,6.97
2018-05-10T09:20:05.818Z,7.33
2018-05-10T09:22:31.898Z,13.40
2018-05-10T09:24:57.976Z,8.87
2018-05-10T09:27:24.056Z,14.80
2018-05-10T09:29:50.883Z,7.47
2018-05-10T09:32:16.967Z,8.40
2018-05-10T09:34:43.094Z,8.30
2018-05-10T09:37:09.221Z,11.20
2018-05-10T09:39:36.108Z,8.47
2018-05-10T09:42:02.130Z,7.87
2018-05-10T09:44:28.930Z,14.47
2018-05-10T09:46:55.011Z,8.77
2018-05-10T09:49:21.963Z,9.17
2018-05-10T09:51:48.052Z,8.17
2018-05-10T09:54:14.134Z,8.40
2018-05-10T09:56:40.306Z,9.13
2018-05-10T09:59:06.424Z,12.63
2018-05-10T10:01:33.237Z,9.60
2018-05-10T10:03:59.320Z,14.87
2018-05-10T10:06:26.214Z,12.90
2018-05-10T10:08:52.358Z,12.30
2018-05-10T10:11:18.494Z,10.47
2018-05-10T10:13:44.567Z,14.03
2018-05-10T10:16:10.660Z,10.97
2018-05-10T10:18:36.735Z,12.53
2018-05-10T10:21:02.822Z,11.37
2018-05-10T10:23:29.067Z,11.90
2018-05-10T10:25:55.226Z,10.87
2018-05-10T10:28:21.383Z,11.20
2018-05-10T10:30:47.544Z,9.77
2018-05-10T10:33:13.677Z,11.07
2018-05-10T10:35:40.718Z,13.43
2018-05-10T10:38:06.829Z,12.13
2018-05-10T10:40:32.979Z,11.40
2018-05-10T10:42:59.074Z,11.17
2018-05-10T10:45:26.087Z,12.17
2018-05-10T10:47:52.318Z,12.33
2018-05-10T10:50:18.403Z,14.37
2018-05-10T10:52:44.498Z,12.13
2018-05-10T10:55:10.630Z,18.63
2018-05-10T10:57:36.722Z,13.40
2018-05-10T11:00:02.833Z,12.30
2018-05-10T11:02:29.035Z,12.13
2018-05-10T11:04:55.229Z,18.43
2018-05-10T11:07:21.515Z,15.83
2018-05-10T11:09:47.687Z,16.63
2018-05-10T11:12:13.891Z,19.20
2018-05-10T11:14:39.967Z,17.30
2018-05-10T11:17:06.074Z,18.30
2018-05-10T11:19:32.156Z,29.30
2018-05-10T11:21:58.242Z,19.27
2018-05-10T11:24:24.319Z,21.27
2018-05-10T11:26:50.398Z,17.17
2018-05-10T11:29:17.230Z,18.67
2018-05-10T11:31:43.318Z,17.70
2018-05-10T11:34:09.455Z,17.67
2018-05-10T11:36:35.529Z,19.10
2018-05-10T11:39:01.625Z,18.70
2018-05-10T11:41:28.376Z,19.20
2018-05-10T11:43:55.207Z,16.70
2018-05-10T11:46:21.291Z,21.90
2018-05-10T11:48:47.429Z,25.63
2018-05-10T11:51:14.222Z,33.30
2018-05-10T11:53:40.311Z,31.30
2018-05-10T11:56:06.386Z,40.60
2018-05-10T11:58:32.476Z,42.90
2018-05-10T12:00:59.282Z,44.80
2018-05-10T12:03:25.370Z,50.43
2018-05-10T12:05:52.186Z,46.80
2018-05-10T12:08:18.306Z,46.50
2018-05-10T12:10:44.398Z,47.70
2018-05-10T12:13:11.214Z,50.37
2018-05-10T12:15:37.299Z,47.03
2018-05-10T12:18:04.171Z,47.17
2018-05-10T12:20:30.850Z,53.30
2018-05-10T12:22:57.630Z,50.80
2018-05-10T12:25:23.714Z,57.00
2018-05-10T12:27:49.820Z,51.30
2018-05-10T12:30:17.329Z,52.00
2018-05-10T12:32:43.346Z,54.33
2018-05-10T12:35:09.435Z,46.33
2018-05-10T12:37:35.534Z,49.03
2018-05-10T12:40:01.621Z,44.93
2018-05-10T12:42:27.698Z,42.23
2018-05-10T12:44:53.783Z,45.67
2018-05-10T12:47:19.858Z,46.43
2018-05-10T12:49:45.949Z,44.60
2018-05-10T12:52:12.030Z,46.57
2018-05-10T12:54:38.118Z,36.37
2018-05-10T12:57:04.207Z,37.67
2018-05-10T12:59:30.285Z,43.60
2018-05-10T13:01:56.370Z,32.73
2018-05-10T13:04:22.455Z,32.13
2018-05-10T13:06:48.635Z,33.50
2018-05-10T13:09:14.634Z,33.87
2018-05-10T13:11:40.713Z,28.90
2018-05-10T13:14:06.800Z,26.07
2018-05-10T13:16:33.491Z,25.37
2018-05-10T13:18:59.579Z,25.67
2018-05-10T13:21:26.906Z,26.57
2018-05-10T13:23:52.979Z,22.30
2018-05-10T13:26:19.075Z,24.47
2018-05-10T13:28:45.146Z,21.90
2018-05-10T13:31:11.238Z,19.73
2018-05-10T13:33:37.306Z,22.00
2018-05-10T13:36:04.215Z,23.03
2018-05-10T13:38:30.374Z,27.37
2018-05-10T13:40:56.387Z,24.90
2018-05-10T13:43:23.218Z,28.23
2018-05-10T13:45:49.299Z,27.83
2018-05-10T13:48:15.403Z,25.70
2018-05-10T13:50:42.231Z,26.73
2018-05-10T13:53:08.317Z,28.70
2018-05-10T13:55:34.462Z,31.60
2018-05-10T13:58:00.551Z,28.60
2018-05-10T14:00:26.630Z,29.10
2018-05-10T14:02:53.450Z,30.20
2018-05-10T14:05:19.514Z,27.83
2018-05-10T14:07:46.352Z,33.93
2018-05-10T14:10:12.491Z,36.83
2018-05-10T14:12:38.562Z,28.17
2018-05-10T14:15:05.446Z,25.23
2018-05-10T14:17:31.548Z,25.80
2018-05-10T14:19:58.442Z,26.33
2018-05-10T14:22:24.748Z,24.00
2018-05-10T14:24:50.838Z,27.60
2018-05-10T14:27:17.106Z,21.33
2018-05-10T14:29:43.222Z,20.63
2018-05-10T14:32:09.401Z,22.30
2018-05-10T14:34:36.260Z,24.43
2018-05-10T14:37:03.183Z,20.43
2018-05-10T14:39:29.520Z,26.17
2018-05-10T14:41:56.294Z,24.23
2018-05-10T14:44:22.499Z,25.57
2018-05-10T14:46:48.750Z,24.60
2018-05-10T14:49:16.548Z,21.00
2018-05-10T14:51:42.643Z,22.93
2018-05-10T14:54:08.819Z,23.90
2018-05-10T14:56:34.882Z,20.17
2018-05-10T14:59:01.705Z,20.60
2018-05-10T15:01:27.803Z,18.50
2018-05-10T15:03:54.863Z,21.17
2018-05-10T15:06:20.954Z,20.33
2018-05-10T15:08:47.210Z,20.43
2018-05-10T15:11:13.294Z,21.70
2018-05-10T15:13:39.431Z,21.77
2018-05-10T15:16:05.534Z,21.30
2018-05-10T15:18:32.422Z,27.17
2018-05-10T15:20:59.250Z,18.77
2018-05-10T15:23:26.133Z,15.93
2018-05-10T15:25:52.303Z,24.07
2018-05-10T15:28:18.427Z,19.80
2018-05-10T15:30:44.522Z,18.17
2018-05-10T15:33:11.363Z,18.37
2018-05-10T15:35:37.626Z,24.13
2018-05-10T15:38:04.450Z,16.70
2018-05-10T15:40:30.531Z,18.73
2018-05-10T15:42:56.679Z,20.50
2018-05-10T15:45:22.758Z,24.40
2018-05-10T15:47:48.857Z,18.63
2018-05-10T15:50:14.962Z,21.10
2018-05-10T15:52:41.292Z,18.93
2018-05-10T15:55:07.379Z,23.93
2018-05-10T15:57:33.488Z,20.50
2018-05-10T16:00:00.326Z,28.47
2018-05-10T16:02:27.163Z,25.27
2018-05-10T16:04:53.232Z,28.23
2018-05-10T16:07:19.335Z,32.37
2018-05-10T16:09:46.163Z,32.80
2018-05-10T16:12:12.310Z,36.80
2018-05-10T16:14:38.416Z,31.50
2018-05-10T16:17:05.243Z,37.37
2018-05-10T16:19:31.483Z,44.40
2018-05-10T16:21:57.681Z,40.20
2018-05-10T16:24:23.926Z,41.07
2018-05-10T16:26:50.012Z,43.90
2018-05-10T16:29:16.252Z,38.33
2018-05-10T16:31:42.339Z,33.60
2018-05-10T16:34:08.433Z,44.10
2018-05-10T16:36:34.531Z,36.03
2018-05-10T16:39:00.610Z,34.20
2018-05-10T16:41:26.792Z,32.90
2018-05-10T16:43:52.879Z,30.70
2018-05-10T16:46:18.987Z,30.57
2018-05-10T16:48:45.083Z,30.13
2018-05-10T16:51:11.905Z,32.20
2018-05-10T16:53:38.015Z,26.90
2018-05-10T16:56:04.137Z,32.03
2018-05-10T16:58:30.223Z,25.67
2018-05-10T17:00:56.322Z,24.90
2018-05-10T17:03:22.418Z,23.13
2018-05-10T17:05:48.516Z,20.80
2018-05-10T17:08:14.614Z,19.97
2018-05-10T17:10:40.707Z,17.83
2018-05-10T17:13:06.899Z,17.10
2018-05-10T17:15:33.031Z,14.60
2018-05-10T17:17:59.178Z,16.60
2018-05-10T17:20:25.379Z,14.63
2018-05-10T17:22:51.467Z,15.63
2018-05-10T17:25:17.612Z,11.97
2018-05-10T17:27:43.739Z,16.63
2018-05-10T17:30:09.835Z,13.53
2018-05-10T17:32:36.654Z,18.93
2018-05-10T17:35:02.771Z,9.73
2018-05-10T17:37:28.861Z,15.47
2018-05-10T17:39:54.962Z,12.30
2018-05-10T17:42:21.103Z,12.10
2018-05-10T17:44:47.182Z,9.13
2018-05-10T17:47:13.290Z,10.00
2018-05-10T17:49:39.381Z,10.80
2018-05-10T17:52:05.461Z,13.13
2018-05-10T17:54:31.570Z,13.40
2018-05-10T17:56:57.717Z,13.00
2018-05-10T17:59:23.818Z,14.07
2018-05-10T18:01:50.659Z,14.07
2018-05-10T18:04:16.737Z,14.73
2018-05-10T18:06:42.957Z,14.53
2018-05-10T18:09:09.842Z,12.87
2018-05-10T18:11:35.951Z,15.97
2018-05-10T18:14:02.792Z,10.67
2018-05-10T18:16:28.875Z,20.63
2018-05-10T18:18:55.019Z,13.67
2018-05-10T18:21:21.114Z,11.63
2018-05-10T18:23:48.015Z,14.90
2018-05-10T18:26:14.090Z,13.80
2018-05-10T18:28:40.202Z,12.70
2018-05-10T18:31:06.287Z,10.87
2018-05-10T18:33:33.863Z,10.83
2018-05-10T18:36:00.706Z,15.17
2018-05-10T18:38:26.898Z,14.10
2018-05-10T18:40:52.996Z,18.27
2018-05-10T18:43:19.178Z,13.23
2018-05-10T18:45:45.298Z,19.93
2018-05-10T18:48:11.446Z,14.50
2018-05-10T18:50:37.545Z,15.00
2018-05-10T18:53:04.529Z,14.53
2018-05-10T18:55:30.628Z,14.37
2018-05-10T18:57:56.727Z,13.73
2018-05-10T19:00:22.963Z,20.40
2018-05-10T19:02:49.842Z,15.07
2018-05-10T19:05:15.923Z,16.43
2018-05-10T19:07:42.766Z,15.97
2018-05-10T19:10:08.951Z,16.43
2018-05-10T19:12:35.043Z,15.97
2018-05-10T19:15:01.134Z,21.13
2018-05-10T19:17:28.026Z,15.63
2018-05-10T19:19:54.117Z,15.90
2018-05-10T19:22:20.243Z,15.90
2018-05-10T19:24:46.335Z,22.90
2018-05-10T19:27:12.434Z,12.20
2018-05-10T19:29:38.519Z,19.30
2018-05-10T19:32:05.132Z,22.23
2018-05-10T19:34:31.218Z,22.40
2018-05-10T19:36:57.292Z,18.23
2018-05-10T19:39:23.445Z,15.40
2018-05-10T19:41:49.577Z,19.80
2018-05-10T19:44:15.674Z,15.90
2018-05-10T19:46:42.552Z,22.43
2018-05-10T19:49:08.738Z,22.43
2018-05-10T19:51:34.822Z,20.93
2018-05-10T19:54:01.731Z,25.10
2018-05-10T19:56:27.819Z,19.17
2018-05-10T19:58:54.696Z,18.70
2018-05-10T20:01:20.825Z,21.57
2018-05-10T20:03:46.976Z,23.90
2018-05-10T20:06:13.096Z,24.63
2018-05-10T20:08:39.235Z,28.70
2018-05-10T20:11:05.293Z,25.70
2018-05-10T20:13:31.399Z,28.23
2018-05-10T20:15:58.260Z,27.00
2018-05-10T20:18:25.099Z,23.27
2018-05-10T20:20:51.211Z,32.17
2018-05-10T20:23:17.294Z,30.80
2018-05-10T20:25:43.419Z,29.00
2018-05-10T20:28:10.358Z,30.47
2018-05-10T20:30:37.445Z,30.03
2018-05-10T20:33:04.362Z,27.80
2018-05-10T20:35:30.474Z,38.10
2018-05-10T20:37:56.558Z,33.87
2018-05-10T20:40:22.807Z,38.67
2018-05-10T20:42:49.077Z,32.43
2018-05-10T20:45:15.238Z,29.60
2018-05-10T20:47:41.371Z,31.47
2018-05-10T20:50:07.501Z,37.07
2018-05-10T20:52:34.039Z,34.40
2018-05-10T20:55:00.181Z,36.60
2018-05-10T20:57:26.239Z,31.00
2018-05-10T20:59:52.327Z,29.47
2018-05-10T21:02:18.511Z,36.87
2018-05-10T21:04:44.715Z,32.97
2018-05-10T21:07:11.550Z,35.53
2018-05-10T21:09:37.745Z,32.33
2018-05-10T21:12:03.862Z,28.23
2018-05-10T21:14:29.967Z,34.40
2018-05-10T21:16:56.063Z,33.20
2018-05-10T21:19:22.158Z,35.10
2018-05-10T21:21:48.269Z,30.90
2018-05-10T21:24:14.362Z,41.80
2018-05-10T21:26:40.459Z,31.53
2018-05-10T21:29:06.562Z,31.23
2018-05-10T21:31:32.645Z,33.17
2018-05-10T21:33:59.508Z,30.40
2018-05-10T21:36:25.590Z,30.30
2018-05-10T21:38:51.678Z,33.53
2018-05-10T21:41:18.519Z,33.30
2018-05-10T21:43:44.608Z,33.50
2018-05-10T21:46:10.767Z,31.73
2018-05-10T21:48:37.914Z,31.57
2018-05-10T21:51:03.990Z,35.07
2018-05-10T21:53:30.102Z,32.53
2018-05-10T21:55:56.951Z,35.30
2018-05-10T21:58:23.050Z,34.70
2018-05-10T22:00:49.872Z,31.37
2018-05-10T22:03:15.954Z,31.27
2018-05-10T22:05:42.051Z,43.23
2018-05-10T22:08:08.157Z,30.97
2018-05-10T22:10:34.279Z,33.13
2018-05-10T22:13:00.382Z,27.70
2018-05-10T22:15:26.482Z,39.03
2018-05-10T22:17:52.566Z,34.00
2018-05-10T22:20:20.410Z,25.73
2018-05-10T22:22:46.494Z,30.27
2018-05-10T22:25:13.391Z,28.77
2018-05-10T22:27:39.483Z,33.87
2018-05-10T22:30:06.374Z,28.63
2018-05-10T22:32:33.172Z,27.27
2018-05-10T22:34:59.290Z,28.70
2018-05-10T22:37:25.380Z,30.00
2018-05-10T22:39:52.290Z,29.67
2018-05-10T22:42:18.386Z,42.43
2018-05-10T22:44:44.553Z,30.30
2018-05-10T22:47:10.655Z,29.17
2018-05-10T22:49:36.734Z,31.77
2018-05-10T22:52:02.842Z,27.43
2018-05-10T22:54:28.918Z,28.53
2018-05-10T22:56:55.015Z,22.13
2018-05-10T22:59:21.140Z,28.43
2018-05-10T23:01:47.310Z,26.60
2018-05-10T23:04:13.448Z,24.73
2018-05-10T23:06:39.546Z,25.50
2018-05-10T23:09:06.383Z,29.93
2018-05-10T23:11:32.478Z,25.03
2018-05-10T23:13:58.578Z,26.27
2018-05-10T23:16:25.435Z,29.33
2018-05-10T23:18:52.303Z,37.57
2018-05-10T23:21:18.407Z,26.57
2018-05-10T23:23:44.495Z,27.03
2018-05-10T23:26:10.578Z,22.17
2018-05-10T23:28:36.675Z,27.60
2018-05-10T23:31:02.762Z,24.30
2018-05-10T23:33:29.614Z,26.63
2018-05-10T23:35:55.696Z,30.73
2018-05-10T23:38:21.830Z,28.90
2018-05-10T23:40:48.052Z,26.37
2018-05-10T23:43:14.890Z,29.43
2018-05-10T23:45:41.034Z,26.67
2018-05-10T23:48:07.127Z,26.47
2018-05-10T23:50:33.217Z,24.70
2018-05-10T23:53:00.138Z,27.63
2018-05-10T23:55:26.281Z,25.77
2018-05-10T23:57:52.378Z,30.70
